sensor_id;sensor_type;location;lat;lon;timestamp;pressure;altitude;pressure_sealevel;temperature;humidity
10510;BME280;5303;53.266;10.410;2022-10-30T00:00:27;101462.44;;;15.49;100.00
10510;BME280;5303;53.266;10.410;2022-10-30T00:02:52;101461.22;;;15.52;100.00
10510;BME280;5303;53.266;10.410;2022-10-30T00:05:18;101449.16;;;15.53;100.00
10510;BME280;5303;53.266;10.410;2022-10-30T00:07:47;101451.44;;;15.49;100.00
10510;BME280;5303;53.266;10.410;2022-10-30T00:10:13;101446.16;;;15.48;100.00
10510;BME280;5303;53.266;10.410;2022-10-30T00:12:38;101441.31;;;15.50;100.00
10510;BME280;5303;53.266;10.410;2022-10-30T00:15:04;101444.72;;;15.52;100.00
10510;BME280;5303;53.266;10.410;2022-10-30T00:17:30;101439.53;;;15.42;100.00
10510;BME280;5303;53.266;10.410;2022-10-30T00:19:55;101435.94;;;15.42;100.00
10510;BME280;5303;53.266;10.410;2022-10-30T00:22:21;101440.09;;;15.37;100.00
10510;BME280;5303;53.266;10.410;2022-10-30T00:24:47;101440.84;;;15.46;100.00
10510;BME280;5303;53.266;10.410;2022-10-30T00:27:12;101444.91;;;15.50;100.00
10510;BME280;5303;53.266;10.410;2022-10-30T00:29:37;101457.25;;;15.54;100.00
10510;BME280;5303;53.266;10.410;2022-10-30T00:32:02;101452.88;;;15.45;100.00
10510;BME280;5303;53.266;10.410;2022-10-30T00:34:28;101459.59;;;15.43;100.00
10510;BME280;5303;53.266;10.410;2022-10-30T00:36:53;101453.81;;;15.37;100.00
10510;BME280;5303;53.266;10.410;2022-10-30T00:39:18;101455.44;;;15.32;100.00
10510;BME280;5303;53.266;10.410;2022-10-30T00:41:44;101461.84;;;15.24;100.00
10510;BME280;5303;53.266;10.410;2022-10-30T00:47:06;101462.69;;;15.25;100.00
10510;BME280;5303;53.266;10.410;2022-10-30T00:49:38;101458.25;;;15.24;100.00
10510;BME280;5303;53.266;10.410;2022-10-30T00:52:09;101462.31;;;15.28;100.00
10510;BME280;5303;53.266;10.410;2022-10-30T00:54:35;101459.78;;;15.26;100.00
10510;BME280;5303;53.266;10.410;2022-10-30T00:57:02;101449.47;;;15.28;100.00
10510;BME280;5303;53.266;10.410;2022-10-30T00:59:32;101446.91;;;15.27;100.00
10510;BME280;5303;53.266;10.410;2022-10-30T01:02:00;101450.88;;;15.24;100.00
10510;BME280;5303;53.266;10.410;2022-10-30T01:04:25;101442.66;;;15.24;100.00
10510;BME280;5303;53.266;10.410;2022-10-30T01:06:51;101440.84;;;15.17;100.00
10510;BME280;5303;53.266;10.410;2022-10-30T01:09:21;101438.78;;;15.19;100.00
10510;BME280;5303;53.266;10.410;2022-10-30T01:11:46;101438.78;;;15.19;100.00
10510;BME280;5303;53.266;10.410;2022-10-30T01:14:14;101434.16;;;15.19;100.00
10510;BME280;5303;53.266;10.410;2022-10-30T01:17:05;101433.00;;;15.28;100.00
10510;BME280;5303;53.266;10.410;2022-10-30T01:19:43;101430.34;;;15.20;100.00
10510;BME280;5303;53.266;10.410;2022-10-30T01:25:20;101430.53;;;15.04;100.00
10510;BME280;5303;53.266;10.410;2022-10-30T01:31:21;101423.63;;;14.93;100.00
10510;BME280;5303;53.266;10.410;2022-10-30T01:34:03;101417.88;;;15.03;100.00
10510;BME280;5303;53.266;10.410;2022-10-30T01:36:39;101417.28;;;15.07;100.00
10510;BME280;5303;53.266;10.410;2022-10-30T01:39:21;101417.13;;;15.09;100.00
10510;BME280;5303;53.266;10.410;2022-10-30T01:41:47;101420.88;;;15.08;100.00
10510;BME280;5303;53.266;10.410;2022-10-30T01:44:16;101417.13;;;15.09;100.00
10510;BME280;5303;53.266;10.410;2022-10-30T01:46:58;101413.59;;;15.15;100.00
10510;BME280;5303;53.266;10.410;2022-10-30T01:52:17;101401.59;;;15.16;100.00
10510;BME280;5303;53.266;10.410;2022-10-30T01:55:11;101404.13;;;15.18;100.00
10510;BME280;5303;53.266;10.410;2022-10-30T01:57:44;101407.34;;;15.21;100.00
10510;BME280;5303;53.266;10.410;2022-10-30T02:00:14;101408.22;;;15.22;100.00
10510;BME280;5303;53.266;10.410;2022-10-30T02:02:41;101408.03;;;15.23;100.00
10510;BME280;5303;53.266;10.410;2022-10-30T02:05:08;101411.44;;;15.25;100.00
10510;BME280;5303;53.266;10.410;2022-10-30T02:07:36;101406.03;;;15.32;100.00
10510;BME280;5303;53.266;10.410;2022-10-30T02:10:02;101406.50;;;15.35;100.00
10510;BME280;5303;53.266;10.410;2022-10-30T02:12:28;101395.81;;;15.26;100.00
10510;BME280;5303;53.266;10.410;2022-10-30T02:14:56;101403.59;;;15.22;100.00
10510;BME280;5303;53.266;10.410;2022-10-30T02:17:22;101407.09;;;15.16;100.00
10510;BME280;5303;53.266;10.410;2022-10-30T02:19:48;101400.00;;;15.22;100.00
10510;BME280;5303;53.266;10.410;2022-10-30T02:22:14;101395.72;;;15.19;100.00
10510;BME280;5303;53.266;10.410;2022-10-30T02:24:40;101395.34;;;15.22;100.00
10510;BME280;5303;53.266;10.410;2022-10-30T02:27:06;101401.22;;;15.19;100.00
10510;BME280;5303;53.266;10.410;2022-10-30T02:29:31;101408.31;;;15.13;100.00
10510;BME280;5303;53.266;10.410;2022-10-30T02:31:56;101409.44;;;15.04;100.00
10510;BME280;5303;53.266;10.410;2022-10-30T02:34:21;101400.06;;;14.99;100.00
10510;BME280;5303;53.266;10.410;2022-10-30T02:36:47;101400.06;;;14.99;100.00
10510;BME280;5303;53.266;10.410;2022-10-30T02:39:12;101405.38;;;15.00;100.00
10510;BME280;5303;53.266;10.410;2022-10-30T02:41:37;101399.03;;;15.00;100.00
10510;BME280;5303;53.266;10.410;2022-10-30T02:44:04;101402.63;;;15.00;100.00
10510;BME280;5303;53.266;10.410;2022-10-30T02:46:30;101402.69;;;14.92;100.00
10510;BME280;5303;53.266;10.410;2022-10-30T02:48:56;101401.69;;;14.93;100.00
10510;BME280;5303;53.266;10.410;2022-10-30T02:51:21;101396.25;;;14.85;100.00
10510;BME280;5303;53.266;10.410;2022-10-30T02:53:46;101402.50;;;14.79;100.00
10510;BME280;5303;53.266;10.410;2022-10-30T02:56:13;101397.75;;;14.73;100.00
10510;BME280;5303;53.266;10.410;2022-10-30T02:58:39;101405.44;;;14.77;100.00
10510;BME280;5303;53.266;10.410;2022-10-30T03:01:06;101415.56;;;14.77;100.00
10510;BME280;5303;53.266;10.410;2022-10-30T03:03:32;101416.09;;;14.72;100.00
10510;BME280;5303;53.266;10.410;2022-10-30T03:06:02;101415.44;;;14.70;100.00
10510;BME280;5303;53.266;10.410;2022-10-30T03:08:28;101411.09;;;14.61;100.00
10510;BME280;5303;53.266;10.410;2022-10-30T03:11:01;101415.53;;;14.62;100.00
10510;BME280;5303;53.266;10.410;2022-10-30T03:13:28;101421.59;;;14.49;100.00
10510;BME280;5303;53.266;10.410;2022-10-30T03:16:06;101423.81;;;14.54;100.00
10510;BME280;5303;53.266;10.410;2022-10-30T03:18:32;101420.88;;;14.55;100.00
10510;BME280;5303;53.266;10.410;2022-10-30T03:21:00;101427.03;;;14.57;100.00
10510;BME280;5303;53.266;10.410;2022-10-30T03:23:26;101430.28;;;14.61;100.00
10510;BME280;5303;53.266;10.410;2022-10-30T03:25:53;101431.50;;;14.58;100.00
10510;BME280;5303;53.266;10.410;2022-10-30T03:28:19;101420.03;;;14.55;100.00
10510;BME280;5303;53.266;10.410;2022-10-30T03:30:45;101430.16;;;14.54;100.00
10510;BME280;5303;53.266;10.410;2022-10-30T03:33:11;101429.66;;;14.51;100.00
10510;BME280;5303;53.266;10.410;2022-10-30T03:35:36;101420.53;;;14.50;100.00
10510;BME280;5303;53.266;10.410;2022-10-30T03:38:01;101423.28;;;14.50;100.00
10510;BME280;5303;53.266;10.410;2022-10-30T03:40:26;101428.78;;;14.50;100.00
10510;BME280;5303;53.266;10.410;2022-10-30T03:42:52;101425.38;;;14.48;100.00
10510;BME280;5303;53.266;10.410;2022-10-30T03:45:17;101413.72;;;14.54;100.00
10510;BME280;5303;53.266;10.410;2022-10-30T03:47:42;101419.00;;;14.56;100.00
10510;BME280;5303;53.266;10.410;2022-10-30T03:53:29;101424.69;;;14.46;100.00
10510;BME280;5303;53.266;10.410;2022-10-30T03:56:03;101424.50;;;14.48;100.00
10510;BME280;5303;53.266;10.410;2022-10-30T03:58:31;101425.91;;;14.43;100.00
10510;BME280;5303;53.266;10.410;2022-10-30T04:01:05;101425.25;;;14.41;100.00
10510;BME280;5303;53.266;10.410;2022-10-30T04:03:31;101432.59;;;14.41;100.00
10510;BME280;5303;53.266;10.410;2022-10-30T04:05:57;101431.75;;;14.40;100.00
10510;BME280;5303;53.266;10.410;2022-10-30T04:08:22;101428.84;;;14.42;100.00
10510;BME280;5303;53.266;10.410;2022-10-30T04:10:48;101426.28;;;14.40;100.00
10510;BME280;5303;53.266;10.410;2022-10-30T04:13:15;101428.66;;;14.43;100.00
10510;BME280;5303;53.266;10.410;2022-10-30T04:15:41;101433.97;;;14.45;100.00
10510;BME280;5303;53.266;10.410;2022-10-30T04:18:10;101441.97;;;14.32;100.00
10510;BME280;5303;53.266;10.410;2022-10-30T04:20:35;101433.28;;;14.20;100.00
10510;BME280;5303;53.266;10.410;2022-10-30T04:23:03;101439.44;;;14.22;100.00
10510;BME280;5303;53.266;10.410;2022-10-30T04:25:28;101440.00;;;14.17;100.00
10510;BME280;5303;53.266;10.410;2022-10-30T04:27:54;101443.66;;;14.10;100.00
10510;BME280;5303;53.266;10.410;2022-10-30T04:30:20;101439.66;;;14.12;100.00
10510;BME280;5303;53.266;10.410;2022-10-30T04:32:50;101442.25;;;14.14;100.00
10510;BME280;5303;53.266;10.410;2022-10-30T04:35:17;101432.56;;;14.03;100.00
10510;BME280;5303;53.266;10.410;2022-10-30T04:37:56;101433.53;;;14.10;100.00
10510;BME280;5303;53.266;10.410;2022-10-30T04:40:24;101425.97;;;14.12;100.00
10510;BME280;5303;53.266;10.410;2022-10-30T04:42:49;101432.50;;;14.11;100.00
10510;BME280;5303;53.266;10.410;2022-10-30T04:45:15;101431.84;;;14.09;100.00
10510;BME280;5303;53.266;10.410;2022-10-30T04:47:41;101438.16;;;14.10;100.00
10510;BME280;5303;53.266;10.410;2022-10-30T04:50:07;101442.97;;;14.08;100.00
10510;BME280;5303;53.266;10.410;2022-10-30T04:52:33;101440.22;;;14.08;100.00
10510;BME280;5303;53.266;10.410;2022-10-30T04:54:58;101437.47;;;14.08;100.00
10510;BME280;5303;53.266;10.410;2022-10-30T04:57:23;101431.88;;;14.01;100.00
10510;BME280;5303;53.266;10.410;2022-10-30T04:59:49;101433.03;;;13.84;100.00
10510;BME280;5303;53.266;10.410;2022-10-30T05:02:14;101430.81;;;13.79;100.00
10510;BME280;5303;53.266;10.410;2022-10-30T05:04:40;101431.78;;;13.86;100.00
10510;BME280;5303;53.266;10.410;2022-10-30T05:07:05;101435.41;;;13.87;100.00
10510;BME280;5303;53.266;10.410;2022-10-30T05:09:31;101425.31;;;13.79;100.00
10510;BME280;5303;53.266;10.410;2022-10-30T05:11:57;101432.69;;;13.79;100.00
10510;BME280;5303;53.266;10.410;2022-10-30T05:14:22;101434.59;;;13.78;100.00
10510;BME280;5303;53.266;10.410;2022-10-30T05:16:47;101438.34;;;13.77;100.00
10510;BME280;5303;53.266;10.410;2022-10-30T05:19:12;101430.50;;;13.74;100.00
10510;BME280;5303;53.266;10.410;2022-10-30T05:24:59;101434.38;;;13.80;100.00
10510;BME280;5303;53.266;10.410;2022-10-30T05:27:24;101424.28;;;13.80;100.00
10510;BME280;5303;53.266;10.410;2022-10-30T05:29:50;101431.53;;;13.73;100.00
10510;BME280;5303;53.266;10.410;2022-10-30T05:32:15;101427.72;;;13.82;100.00
10510;BME280;5303;53.266;10.410;2022-10-30T05:34:40;101423.63;;;13.78;100.00
10510;BME280;5303;53.266;10.410;2022-10-30T05:37:06;101431.16;;;13.76;100.00
10510;BME280;5303;53.266;10.410;2022-10-30T05:39:31;101431.16;;;13.76;100.00
10510;BME280;5303;53.266;10.410;2022-10-30T05:41:56;101433.75;;;13.78;100.00
10510;BME280;5303;53.266;10.410;2022-10-30T05:44:21;101429.81;;;13.72;100.00
10510;BME280;5303;53.266;10.410;2022-10-30T05:46:47;101431.53;;;13.73;100.00
10510;BME280;5303;53.266;10.410;2022-10-30T05:49:12;101438.56;;;13.67;100.00
10510;BME280;5303;53.266;10.410;2022-10-30T05:51:37;101432.06;;;13.68;100.00
10510;BME280;5303;53.266;10.410;2022-10-30T05:54:03;101435.31;;;13.64;100.00
10510;BME280;5303;53.266;10.410;2022-10-30T05:56:28;101440.81;;;13.64;100.00
10510;BME280;5303;53.266;10.410;2022-10-30T05:58:53;101444.78;;;13.61;100.00
10510;BME280;5303;53.266;10.410;2022-10-30T06:01:18;101442.88;;;13.62;100.00
10510;BME280;5303;53.266;10.410;2022-10-30T06:03:44;101441.34;;;13.59;100.00
10510;BME280;5303;53.266;10.410;2022-10-30T06:06:09;101446.97;;;13.66;100.00
10510;BME280;5303;53.266;10.410;2022-10-30T06:08:35;101454.50;;;13.64;100.00
10510;BME280;5303;53.266;10.410;2022-10-30T06:11:00;101451.41;;;13.67;100.00
10510;BME280;5303;53.266;10.410;2022-10-30T06:13:25;101447.31;;;13.63;100.00
10510;BME280;5303;53.266;10.410;2022-10-30T06:15:53;101454.97;;;13.67;100.00
10510;BME280;5303;53.266;10.410;2022-10-30T06:18:20;101457.41;;;13.62;100.00
10510;BME280;5303;53.266;10.410;2022-10-30T06:20:45;101453.34;;;13.58;100.00
10510;BME280;5303;53.266;10.410;2022-10-30T06:23:10;101454.53;;;13.56;100.00
10510;BME280;5303;53.266;10.410;2022-10-30T06:25:36;101452.81;;;13.55;100.00
10510;BME280;5303;53.266;10.410;2022-10-30T06:28:01;101457.44;;;13.54;100.00
10510;BME280;5303;53.266;10.410;2022-10-30T06:30:27;101460.19;;;13.54;100.00
10510;BME280;5303;53.266;10.410;2022-10-30T06:32:59;101454.84;;;13.61;100.00
10510;BME280;5303;53.266;10.410;2022-10-30T06:35:25;101464.22;;;13.66;100.00
10510;BME280;5303;53.266;10.410;2022-10-30T06:37:51;101459.53;;;13.52;100.00
10510;BME280;5303;53.266;10.410;2022-10-30T06:40:17;101471.13;;;13.54;100.00
10510;BME280;5303;53.266;10.410;2022-10-30T06:42:44;101469.63;;;13.51;100.00
10510;BME280;5303;53.266;10.410;2022-10-30T06:45:11;101468.03;;;13.57;100.00
10510;BME280;5303;53.266;10.410;2022-10-30T06:47:37;101468.22;;;13.56;100.00
10510;BME280;5303;53.266;10.410;2022-10-30T06:50:04;101477.56;;;13.69;100.00
10510;BME280;5303;53.266;10.410;2022-10-30T06:52:29;101483.72;;;13.71;100.00
10510;BME280;5303;53.266;10.410;2022-10-30T06:54:55;101483.72;;;13.71;100.00
10510;BME280;5303;53.266;10.410;2022-10-30T06:57:20;101488.34;;;13.71;100.00
10510;BME280;5303;53.266;10.410;2022-10-30T06:59:45;101481.50;;;13.75;100.00
10510;BME280;5303;53.266;10.410;2022-10-30T07:02:11;101488.34;;;13.71;100.00
10510;BME280;5303;53.266;10.410;2022-10-30T07:04:36;101488.34;;;13.71;100.00
10510;BME280;5303;53.266;10.410;2022-10-30T07:07:02;101488.16;;;13.81;100.00
10510;BME280;5303;53.266;10.410;2022-10-30T07:09:28;101486.97;;;13.67;100.00
10510;BME280;5303;53.266;10.410;2022-10-30T07:11:53;101486.13;;;13.74;100.00
10510;BME280;5303;53.266;10.410;2022-10-30T07:14:18;101485.06;;;13.84;100.00
10510;BME280;5303;53.266;10.410;2022-10-30T07:16:43;101489.50;;;13.85;100.00
10510;BME280;5303;53.266;10.410;2022-10-30T07:19:09;101496.50;;;13.87;100.00
10510;BME280;5303;53.266;10.410;2022-10-30T07:21:34;101498.81;;;13.98;100.00
10510;BME280;5303;53.266;10.410;2022-10-30T07:23:59;101495.38;;;14.05;100.00
10510;BME280;5303;53.266;10.410;2022-10-30T07:26:25;101494.84;;;14.09;100.00
10510;BME280;5303;53.266;10.410;2022-10-30T07:28:50;101493.44;;;14.13;100.00
10510;BME280;5303;53.266;10.410;2022-10-30T07:31:15;101498.56;;;14.16;100.00
10510;BME280;5303;53.266;10.410;2022-10-30T07:33:40;101499.72;;;14.22;100.00
10510;BME280;5303;53.266;10.410;2022-10-30T07:36:06;101504.84;;;14.25;100.00
10510;BME280;5303;53.266;10.410;2022-10-30T07:38:31;101506.38;;;14.28;100.00
10510;BME280;5303;53.266;10.410;2022-10-30T07:40:57;101501.25;;;14.25;100.00
10510;BME280;5303;53.266;10.410;2022-10-30T07:43:22;101500.34;;;14.32;100.00
10510;BME280;5303;53.266;10.410;2022-10-30T07:45:47;101500.00;;;14.35;100.00
10510;BME280;5303;53.266;10.410;2022-10-30T07:48:13;101504.06;;;14.39;100.00
10510;BME280;5303;53.266;10.410;2022-10-30T07:50:38;101511.38;;;14.47;100.00
10510;BME280;5303;53.266;10.410;2022-10-30T07:53:03;101510.53;;;14.47;100.00
10510;BME280;5303;53.266;10.410;2022-10-30T07:55:28;101523.38;;;14.54;100.00
10510;BME280;5303;53.266;10.410;2022-10-30T07:57:54;101524.34;;;14.61;100.00
10510;BME280;5303;53.266;10.410;2022-10-30T08:00:19;101526.88;;;14.63;100.00
10510;BME280;5303;53.266;10.410;2022-10-30T08:02:51;101521.88;;;14.66;100.00
10510;BME280;5303;53.266;10.410;2022-10-30T08:05:20;101511.22;;;14.72;100.00
10510;BME280;5303;53.266;10.410;2022-10-30T08:07:46;101514.47;;;14.75;100.00
10510;BME280;5303;53.266;10.410;2022-10-30T08:10:12;101518.53;;;14.79;100.00
10510;BME280;5303;53.266;10.410;2022-10-30T08:12:37;101517.50;;;14.80;100.00
10510;BME280;5303;53.266;10.410;2022-10-30T08:15:05;101520.25;;;14.80;100.00
10510;BME280;5303;53.266;10.410;2022-10-30T08:17:30;101526.88;;;14.86;100.00
10510;BME280;5303;53.266;10.410;2022-10-30T08:19:55;101526.88;;;14.86;100.00
10510;BME280;5303;53.266;10.410;2022-10-30T08:22:21;101517.75;;;14.94;100.00
10510;BME280;5303;53.266;10.410;2022-10-30T08:24:46;101511.50;;;15.00;100.00
10510;BME280;5303;53.266;10.410;2022-10-30T08:27:11;101517.47;;;15.03;100.00
10510;BME280;5303;53.266;10.410;2022-10-30T08:29:37;101520.69;;;15.07;100.00
10510;BME280;5303;53.266;10.410;2022-10-30T08:32:02;101526.31;;;15.13;100.00
10510;BME280;5303;53.266;10.410;2022-10-30T08:34:27;101530.75;;;15.14;100.00
10510;BME280;5303;53.266;10.410;2022-10-30T08:36:55;101525.72;;;15.18;100.00
10510;BME280;5303;53.266;10.410;2022-10-30T08:39:21;101522.06;;;15.26;100.00
10510;BME280;5303;53.266;10.410;2022-10-30T08:41:46;101519.13;;;15.27;100.00
10510;BME280;5303;53.266;10.410;2022-10-30T08:44:12;101515.47;;;15.35;100.00
10510;BME280;5303;53.266;10.410;2022-10-30T08:46:37;101511.75;;;15.43;100.00
10510;BME280;5303;53.266;10.410;2022-10-30T08:49:03;101524.44;;;15.44;100.00
10510;BME280;5303;53.266;10.410;2022-10-30T08:51:31;101510.53;;;15.60;100.00
10510;BME280;5303;53.266;10.410;2022-10-30T08:53:57;101520.13;;;15.64;100.00
10510;BME280;5303;53.266;10.410;2022-10-30T08:56:22;101516.25;;;15.73;100.00
10510;BME280;5303;53.266;10.410;2022-10-30T08:58:49;101517.19;;;15.80;100.00
10510;BME280;5303;53.266;10.410;2022-10-30T09:01:14;101517.75;;;15.91;100.00
10510;BME280;5303;53.266;10.410;2022-10-30T09:03:40;101519.44;;;15.92;100.00
10510;BME280;5303;53.266;10.410;2022-10-30T09:06:07;101517.16;;;15.95;100.00
10510;BME280;5303;53.266;10.410;2022-10-30T09:08:32;101509.22;;;16.00;100.00
10510;BME280;5303;53.266;10.410;2022-10-30T09:10:57;101517.16;;;16.10;100.00
10510;BME280;5303;53.266;10.410;2022-10-30T09:13:23;101514.38;;;16.25;100.00
10510;BME280;5303;53.266;10.410;2022-10-30T09:15:49;101513.59;;;16.31;100.00
10510;BME280;5303;53.266;10.410;2022-10-30T09:18:15;101504.66;;;16.44;100.00
10510;BME280;5303;53.266;10.410;2022-10-30T09:20:40;101508.31;;;16.51;100.00
10510;BME280;5303;53.266;10.410;2022-10-30T09:23:05;101508.91;;;16.68;100.00
10510;BME280;5303;53.266;10.410;2022-10-30T09:25:30;101508.41;;;16.79;100.00
10510;BME280;5303;53.266;10.410;2022-10-30T09:27:56;101505.97;;;16.91;100.00
10510;BME280;5303;53.266;10.410;2022-10-30T09:30:21;101500.84;;;17.09;100.00
10510;BME280;5303;53.266;10.410;2022-10-30T09:33:13;101507.31;;;17.30;100.00
10510;BME280;5303;53.266;10.410;2022-10-30T09:35:38;101504.19;;;17.33;100.00
10510;BME280;5303;53.266;10.410;2022-10-30T09:38:03;101503.31;;;17.32;100.00
10510;BME280;5303;53.266;10.410;2022-10-30T09:46:25;101496.69;;;17.55;100.00
10510;BME280;5303;53.266;10.410;2022-10-30T09:49:06;101502.03;;;17.56;100.00
10510;BME280;5303;53.266;10.410;2022-10-30T09:54:53;101497.16;;;17.65;100.00
10510;BME280;5303;53.266;10.410;2022-10-30T10:00:10;101503.31;;;17.95;100.00
10510;BME280;5303;53.266;10.410;2022-10-30T10:05:39;101501.00;;;17.99;100.00
10510;BME280;5303;53.266;10.410;2022-10-30T10:08:10;101500.59;;;18.08;100.00
10510;BME280;5303;53.266;10.410;2022-10-30T10:10:39;101497.88;;;18.22;100.00
10510;BME280;5303;53.266;10.410;2022-10-30T10:13:14;101504.47;;;18.21;
10510;BME280;5303;53.266;10.410;2022-10-30T10:15:51;101500.66;;;18.28;100.00
10510;BME280;5303;53.266;10.410;2022-10-30T10:18:24;101500.91;;;18.33;100.00
10510;BME280;5303;53.266;10.410;2022-10-30T10:20:52;101500.69;;;18.42;100.00
10510;BME280;5303;53.266;10.410;2022-10-30T10:23:31;101496.69;;;18.44;100.00
10510;BME280;5303;53.266;10.410;2022-10-30T10:26:07;101494.34;;;18.54;100.00
10510;BME280;5303;53.266;10.410;2022-10-30T10:28:51;101503.31;;;18.70;100.00
10510;BME280;5303;53.266;10.410;2022-10-30T10:32:00;101501.22;;;18.78;100.00
10510;BME280;5303;53.266;10.410;2022-10-30T10:39:54;101493.38;;;19.02;100.00
10510;BME280;5303;53.266;10.410;2022-10-30T10:42:43;101489.53;;;19.09;100.00
10510;BME280;5303;53.266;10.410;2022-10-30T10:50:24;101487.00;;;19.08;100.00
10510;BME280;5303;53.266;10.410;2022-10-30T10:55:37;101486.34;;;18.99;100.00
10510;BME280;5303;53.266;10.410;2022-10-30T10:58:10;101482.09;;;18.97;100.00
10510;BME280;5303;53.266;10.410;2022-10-30T11:00:38;101478.72;;;19.01;100.00
10510;BME280;5303;53.266;10.410;2022-10-30T11:03:19;101468.50;;;19.08;100.00
10510;BME280;5303;53.266;10.410;2022-10-30T11:05:49;101470.00;;;19.11;100.00
10510;BME280;5303;53.266;10.410;2022-10-30T11:08:21;101458.97;;;19.11;100.00
10510;BME280;5303;53.266;10.410;2022-10-30T11:10:58;101465.13;;;19.20;100.00
10510;BME280;5303;53.266;10.410;2022-10-30T11:13:27;101462.97;;;19.15;100.00
10510;BME280;5303;53.266;10.410;2022-10-30T11:16:05;101467.66;;;19.15;100.00
10510;BME280;5303;53.266;10.410;2022-10-30T11:18:34;101466.59;;;19.16;100.00
10510;BME280;5303;53.266;10.410;2022-10-30T11:21:08;101464.66;;;19.23;100.00
10510;BME280;5303;53.266;10.410;2022-10-30T11:23:42;101464.44;;;19.31;100.00
10510;BME280;5303;53.266;10.410;2022-10-30T11:26:29;101454.88;;;19.34;100.00
10510;BME280;5303;53.266;10.410;2022-10-30T11:31:37;101458.28;;;19.42;100.00
10510;BME280;5303;53.266;10.410;2022-10-30T11:36:45;101445.72;;;19.40;100.00
10510;BME280;5303;53.266;10.410;2022-10-30T11:39:19;101448.47;;;19.46;100.00
10510;BME280;5303;53.266;10.410;2022-10-30T11:41:53;101455.91;;;19.52;100.00
10510;BME280;5303;53.266;10.410;2022-10-30T11:44:20;101455.91;;;19.52;100.00
10510;BME280;5303;53.266;10.410;2022-10-30T11:46:46;101459.09;;;19.49;100.00
10510;BME280;5303;53.266;10.410;2022-10-30T11:49:32;101449.09;;;19.55;100.00
10510;BME280;5303;53.266;10.410;2022-10-30T11:52:00;101456.94;;;19.58;100.00
10510;BME280;5303;53.266;10.410;2022-10-30T11:54:26;101444.84;;;19.66;100.00
10510;BME280;5303;53.266;10.410;2022-10-30T11:56:52;101445.22;;;19.63;100.00
10510;BME280;5303;53.266;10.410;2022-10-30T11:59:20;101447.34;;;19.61;100.00
10510;BME280;5303;53.266;10.410;2022-10-30T12:01:57;101440.13;;;19.73;100.00
10510;BME280;5303;53.266;10.410;2022-10-30T12:04:25;101446.94;;;19.70;100.00
10510;BME280;5303;53.266;10.410;2022-10-30T12:07:16;101446.91;;;19.77;100.00
10510;BME280;5303;53.266;10.410;2022-10-30T12:09:46;101437.75;;;19.76;100.00
10510;BME280;5303;53.266;10.410;2022-10-30T12:12:22;101442.66;;;19.81;100.00
10510;BME280;5303;53.266;10.410;2022-10-30T12:14:50;101433.28;;;19.82;100.00
10510;BME280;5303;53.266;10.410;2022-10-30T12:17:16;101438.84;;;19.75;100.00
10510;BME280;5303;53.266;10.410;2022-10-30T12:19:47;101442.00;;;19.79;100.00
10510;BME280;5303;53.266;10.410;2022-10-30T12:22:33;101445.41;;;19.81;100.00
10510;BME280;5303;53.266;10.410;2022-10-30T12:25:05;101442.22;;;19.84;100.00
10510;BME280;5303;53.266;10.410;2022-10-30T12:27:34;101436.81;;;19.96;100.00
10510;BME280;5303;53.266;10.410;2022-10-30T12:30:09;101442.31;;;20.02;100.00
10510;BME280;5303;53.266;10.410;2022-10-30T12:32:55;101434.41;;;20.13;100.00
10510;BME280;5303;53.266;10.410;2022-10-30T12:38:44;101435.88;;;20.15;100.00
10510;BME280;5303;53.266;10.410;2022-10-30T12:43:37;101433.94;;;20.16;100.00
10510;BME280;5303;53.266;10.410;2022-10-30T12:46:25;101429.03;;;20.18;100.00
10510;BME280;5303;53.266;10.410;2022-10-30T12:48:56;101433.06;;;20.22;100.00
10510;BME280;5303;53.266;10.410;2022-10-30T12:51:36;101426.91;;;20.20;100.00
10510;BME280;5303;53.266;10.410;2022-10-30T12:57:17;101429.28;;;20.16;100.00
10510;BME280;5303;53.266;10.410;2022-10-30T12:59:50;101425.00;;;20.20;100.00
10510;BME280;5303;53.266;10.410;2022-10-30T13:02:31;101425.16;;;20.25;100.00
10510;BME280;5303;53.266;10.410;2022-10-30T13:07:46;101422.88;;;20.22;100.00
10510;BME280;5303;53.266;10.410;2022-10-30T13:10:29;101414.13;;;20.19;100.00
10510;BME280;5303;53.266;10.410;2022-10-30T13:13:00;101416.50;;;20.15;100.00
10510;BME280;5303;53.266;10.410;2022-10-30T13:15:42;101413.09;;;20.20;100.00
10510;BME280;5303;53.266;10.410;2022-10-30T13:18:15;101421.91;;;20.04;100.00
10510;BME280;5303;53.266;10.410;2022-10-30T13:20:43;101416.16;;;20.05;100.00
10510;BME280;5303;53.266;10.410;2022-10-30T13:23:19;101413.16;;;20.07;100.00
10510;BME280;5303;53.266;10.410;2022-10-30T13:29:36;101416.34;;;20.10;100.00
10510;BME280;5303;53.266;10.410;2022-10-30T13:39:41;101413.69;;;20.22;100.00
10510;BME280;5303;53.266;10.410;2022-10-30T13:48:07;101410.94;;;20.22;100.00
10510;BME280;5303;53.266;10.410;2022-10-30T13:50:55;101410.03;;;20.28;100.00
10510;BME280;5303;53.266;10.410;2022-10-30T13:53:27;101414.31;;;20.24;100.00
10510;BME280;5303;53.266;10.410;2022-10-30T13:55:55;101414.06;;;20.32;100.00
10510;BME280;5303;53.266;10.410;2022-10-30T13:58:41;101417.28;;;20.29;100.00
10510;BME280;5303;53.266;10.410;2022-10-30T14:01:16;101421.94;;;20.35;100.00
10510;BME280;5303;53.266;10.410;2022-10-30T14:04:01;101421.00;;;20.41;100.00
10510;BME280;5303;53.266;10.410;2022-10-30T14:06:34;101418.94;;;20.37;100.00
10510;BME280;5303;53.266;10.410;2022-10-30T14:15:15;101416.84;;;20.25;100.00